ADDS METAR Data INFO
IDs: Format: Raw Decoded Include TAF

Data at: 0130 UTC 20 Feb 2018

KGLS 200121Z AUTO 13016KT 7SM BKN023 OVC070 21/19 A2998 RMK AO2 T02060194
KGLS 200052Z AUTO 13015KT 8SM FEW027 OVC070 21/19 A2998 RMK AO2 SLP151 T02060194
KGLS 200043Z AUTO 12016KT 8SM FEW019 SCT027 OVC070 21/20 A2998 RMK AO2 T02110200
KGLS 200029Z AUTO 12014KT 8SM SCT019 BKN027 OVC080 21/20 A2998 RMK AO2 T02110200
KGLS 192352Z 12016G23KT 3SM BR BKN060 OVC080 22/21 A2998 RMK AO2 SLP150 T02170206 10250 20211 55001
KGLS 192252Z 12015KT 6SM BR OVC070 22/20 A2997 RMK AO2 SLP148 T02170200
KGLS 192152Z 13015KT 10SM BKN060 OVC080 22/19 A2997 RMK AO2 SLP150 T02220189
KGLS 192052Z 13013KT 10SM OVC065 22/19 A2998 RMK AO2 SLP151 T02220189 56022
KGLS 191952Z 13017KT 10SM CLR 24/19 A2999 RMK AO2 SLP154 T02390189
KGLS 191852Z 15017KT 10SM FEW070 24/19 A3001 RMK AO2 SLP163 T02440194
KGLS 191752Z 14013KT 10SM FEW030 SCT065 24/19 A3004 RMK AO2 SLP173 T02390194 10239 20200 58002
KGLS 191652Z 15018G22KT 10SM CLR 24/20 A3006 RMK AO2 SLP177 T02390200
KGLS 191552Z 14015KT 10SM CLR 22/19 A3005 RMK AO2 SLP175 T02220194
KGLS 191532Z 14017KT 10SM SCT027 23/20 A3005 RMK AO2 T02280200
KGLS 191452Z 15015KT 10SM OVC027 21/19 A3005 RMK AO2 SLP175 T02110194 53015
KGLS 191440Z 15013KT 10SM BKN025 21/19 A3005 RMK AO2 T02110194
KGLS 191352Z 14015KT 10SM CLR 21/19 A3002 RMK AO2 SLP166 T02060189
KGLS 191252Z 15015KT 10SM CLR 20/19 A3001 RMK AO2 SLP163 T02000189
KGLS 191152Z 15014KT 9SM CLR 20/19 A3000 RMK AO2 SLP160 T02000189 10200 20189 55000
KGLS 191052Z AUTO 15014KT 10SM CLR 19/18 A3000 RMK AO2 SLP157 T01940183
KGLS 190952Z AUTO 15013KT 9SM CLR 19/19 A3000 RMK AO2 SLP157 T01940189
KGLS 190938Z AUTO 15013KT 9SM SCT025 19/19 A3000 RMK AO2 T01940189
KGLS 190852Z AUTO 15013KT 7SM OVC022 19/19 A3001 RMK AO2 SLP160 T01940189 56010
KGLS 190840Z AUTO 15014KT 6SM BR BKN022 19/18 A3000 RMK AO2 T01940183
KGLS 190752Z AUTO 15015KT 6SM BR CLR 19/18 A3001 RMK AO2 SLP162 T01940183
KGLS 190652Z AUTO 15012KT 6SM BR CLR 19/18 A3002 RMK AO2 SLP165 T01890183
KGLS 190552Z AUTO 15014KT 7SM CLR 19/19 A3003 RMK AO2 SLP170 T01940189 10206 20189 402390178 58006
KGLS 190452Z AUTO 15013KT 7SM CLR 19/19 A3004 RMK AO2 SLP172 T01940189
KGLS 190434Z AUTO 14015KT 7SM FEW002 SCT008 20/19 A3004 RMK AO2 T02000194
KGLS 190420Z AUTO 14014KT 6SM BR SCT002 BKN006 19/19 A3004 RMK AO2 T01940194
KGLS 190413Z AUTO 14013KT 2 1/2SM BR SCT003 OVC006 19/19 A3004 RMK AO2 T01940194
KGLS 190411Z AUTO 14014KT 1 3/4SM BR OVC003 19/19 A3004 RMK AO2 T01940189
KGLS 190352Z AUTO 13014KT 3/4SM BR OVC003 19/19 A3005 RMK AO2 SLP175 T01940194
KGLS 190319Z AUTO 13013KT 1SM BR VV004 19/19 A3005 RMK AO2 T01940189
KGLS 190308Z AUTO 13011KT 3/4SM BR SCT002 BKN008 19/19 A3005 RMK AO2 T01890189
KGLS 190305Z AUTO 13011KT 1 1/2SM BR SCT002 BKN010 19/19 A3005 RMK AO2 T01940189
KGLS 190252Z AUTO 13011KT 5SM BR SCT002 BKN013 19/19 A3005 RMK AO2 SLP176 T01940189 50003
KGLS 190240Z AUTO 13011KT 3SM BR BKN002 OVC011 19/19 A3005 RMK AO2 T01890189
KGLS 190231Z AUTO 13011KT 3SM BR SCT002 OVC010 19/19 A3005 RMK AO2 T01890189
KGLS 190220Z AUTO 13011KT 2SM BR SCT002 OVC008 19/19 A3005 RMK AO2 T01940189
KGLS 190152Z AUTO 13010KT 1SM BR BKN002 OVC008 19/19 A3005 RMK AO2 SLP177 T01940194
KGLS 190147Z AUTO 13011KT 1SM BR BKN002 BKN008 OVC018 19/19 A3005 RMK AO2
KGLS 190140Z AUTO 13010KT 2SM BR BKN002 BKN020 20/19 A3005 RMK AO2 T02000194
KGLS 190136Z AUTO 13011KT 4SM BR SCT002 BKN020 20/19 A3005 RMK AO2 T02000194
KGLS 190112Z AUTO 14011KT 7SM FEW003 19/19 A3005 RMK AO2 T01940189
KGLS 190059Z AUTO 13011KT 8SM CLR 20/19 A3005 RMK AO2 T02000194
KGLS 190052Z AUTO 13011KT 2SM BR CLR 20/19 A3005 RMK AO2 SLP174 T02000194
KGLS 182352Z 13010KT 2SM BR CLR 21/19 A3005 RMK AO2 SLP176 T02060194 10239 20206 56006
KGLS 182252Z 13010KT 2SM BR FEW029 BKN037 OVC044 22/20 A3005 RMK AO2 SLP177 T02170200
KGLS 182230Z 13010KT 2SM BR FEW002 BKN035 OVC043 22/20 A3006 RMK AO2 T02170200
KGLS 182209Z 13009KT 2SM BR OVC036 22/20 A3006 RMK AO2 T02220200
KGLS 182159Z 13010KT 10SM BKN036 23/20 A3006 RMK AO2 T02280200
KGLS 182152Z 13011KT 2SM HZ BKN036 23/20 A3006 RMK AO2 SLP179 T02280200
KGLS 182120Z 13010KT 2SM HZ FEW022 BKN035 BKN046 23/20 A3006 RMK AO2 T02330200
KGLS 182059Z 13011KT 10SM FEW002 BKN035 OVC046 23/20 A3007 RMK AO2 T02280200
KGLS 182052Z 13011KT 2SM BR FEW003 BKN030 OVC037 22/20 A3007 RMK AO2 SLP182 T02220200 56016
KGLS 182050Z 13010KT 2SM BR FEW003 BKN030 OVC037 22/20 A3007 RMK AO2
KGLS 182039Z 13011KT 2SM HZ SCT003 BKN024 BKN030 23/20 A3007 RMK AO2 T02280200
KGLS 182031Z 13010KT 3/4SM HZ SCT003 BKN024 OVC038 23/20 A3008 RMK AO2 T02280200
KGLS 182023Z 13010KT 3/4SM HZ SCT003 SCT024 OVC036 23/20 A3008 RMK AO2 T02330200
KGLS 182011Z 12011KT 3/4SM HZ SCT003 BKN023 OVC038 23/20 A3008 RMK AO2 T02280200
KGLS 181959Z 13010KT 3/4SM HZ BKN003 BKN007 OVC042 23/20 A3009 RMK AO2 T02330200
KGLS 181952Z 12010KT 1SM HZ BKN003 OVC023 22/19 A3009 RMK AO2 SLP188 T02220194
KGLS 181859Z 13010KT 1SM HZ BKN003 OVC040 23/19 A3011 RMK AO2 T02280194
KGLS 181852Z 12009KT 1/2SM HZ OVC003 22/19 A3012 RMK AO2 SLP198 T02220194
KGLS 181848Z 12009KT 1/2SM HZ OVC003 22/19 A3012 RMK AO2
KGLS 181759Z 11009KT 1SM HZ OVC003 22/19 A3015 RMK AO2 T02220194
KGLS 181752Z 12008KT 1/4SM FG OVC003 21/19 A3015 RMK AO2 SLP208 T02110189 10222 20183 50001
KGLS 181659Z 11008KT 1/4SM FG OVC002 21/19 A3016 RMK AO2 T02060189
KGLS 181652Z 11009KT 1/2SM FG OVC002 21/19 A3016 RMK AO2 SLP211 T02060189
KGLS 181640Z 11010KT 1/2SM FG OVC002 19/18 A3016 RMK AO2 T01940183
KGLS 181625Z 11010KT 1/4SM FG OVC002 19/19 A3016 RMK AO2 T01940189
KGLS 181610Z 10008KT 3/4SM BR OVC002 19/19 A3016 RMK AO2 T01940189
KGLS 181559Z 09009KT 1 1/2SM BR OVC002 19/19 A3016 RMK AO2 T01940189
KGLS 181552Z 09008KT 3/4SM BR OVC002 19/19 A3016 RMK AO2 SLP212 T01940194
KGLS 181452Z 08007KT M1/4SM FG BKN002 OVC110 19/19 A3014 RMK AO2 SLP207 T01890189 53009
KGLS 181352Z 08007KT M1/4SM FG VV002 19/18 A3013 RMK AO2 SLP202 T01890183